aviador You're here:

SAEZ Decoded Metar

BUENOS AIRES/EZE in ARGENTINA
Report Time2018-07-18 23:30:00
UTC Time2018-07-18 23:55:37
Flight Rules lifr LIFR
Wind180° at 03 kt
W.Decomp.*RWY 17: 2.9 kt HW 0.9 kt RCW
RWY 11: 0.7 kt HW 2.9 kt RCW
W.Rank180° ranks 11
Current wind is below 180° avg. (6.3)
Visibility1500 m
Phenomena:Mist
Clouds:Overcast 003 Hf
Ceiling300 ft
Temp13°C (ISA -2)
Dew Point13°C (100% RH)
AAT12.9°C
QNH1010 hPa
Density Alt144 ft
Elevation66 ft
Report Wrong Elevation
Raw Report
METAR SAEZ 182330Z 18003KT 1500 BR OVC003 13/13 Q1010 NOSIG=

Extra information for SAEZ:More info

Metar Taf Metar & Taf Last 4 Metars F.Rules Stats Wind Profile Meteogram Temp Stats Airport Information Weather charts Add Link Nearby VenuesMetar ALERT Operation Metar Decoded Social comments